Jack Brusco — WDC3066 — position and weather

sailwx.info

Track history (hours):
 
Tides and Currents Weather Stations Pressure Air Temp Water Temp Dewpoint Dewpoint Depression Visibility Wind Speed Wind Dir Waves Ship Positions

Jack Brusco

Owner: Brusco Tug & Barge, Inc., Longview, WA. More information available from US FCC via Universal Licensing System and Coast Guard Vessel Documentation Center.

Last reported at 2017-Jul-24 13:00 UTC. Time now 2017-Jul-24 14:35 UTC.
Position N 43°56' W 124°42'.

Length 36 m; draft 5.2 m.

Type: Tug. MMSI: 3699086.

Date/timePositionNaut miles runAvg speedWind from/ knotsBaromVisibWave heightAir tempDewpointWater temp
2017-Jul-24 13:00N 43°56' W 124°42'3 6.5
2017-Jul-24 12:30N 43°60' W 124°42'3 6.6
2017-Jul-24 12:00N 44°03' W 124°42'4 6.4
2017-Jul-24 11:26N 44°07' W 124°42'3 6.4
2017-Jul-24 10:59N 44°09' W 124°42'3 6.8
2017-Jul-24 10:30N 44°13' W 124°42'3 6.7
2017-Jul-24 10:00N 44°16' W 124°42'3 6.6
2017-Jul-24 09:31N 44°19' W 124°42'3 6.8
2017-Jul-24 09:00N 44°23' W 124°42'3 6.7
2017-Jul-24 08:30N 44°26' W 124°42'3 6.6
2017-Jul-24 07:59N 44°30' W 124°42'3 6.6
2017-Jul-24 07:29N 44°33' W 124°42'3 6.6
2017-Jul-24 06:58N 44°36' W 124°42'3 6.7
2017-Jul-24 06:30N 44°39' W 124°43'4 7.2
2017-Jul-24 06:01N 44°43' W 124°43'4 7.5
2017-Jul-24 05:28N 44°47' W 124°43'6 7.7
2017-Jul-24 04:39N 44°53' W 124°44'1 7.0
2017-Jul-24 04:30N 44°54' W 124°44'3 6.9
2017-Jul-24 04:00N 44°57' W 124°47'3 7.0
2017-Jul-24 03:31N 44°60' W 124°51'4 7.0
2017-Jul-24 03:00N 45°02' W 124°54'3 6.9
2017-Jul-24 02:30N 45°05' W 124°57'3 6.7
2017-Jul-24 02:00N 45°08' W 124°59'4 7.3
2017-Jul-24 01:24N 45°12' W 125°01'3 7.6
2017-Jul-24 00:59N 45°15' W 125°01'4 7.7
2017-Jul-24 00:30N 45°19' W 125°01'4 8.2
2017-Jul-24 00:00N 45°23' W 125°00'4 8.4
2017-Jul-23 23:31N 45°27' W 125°00'4 7.7
2017-Jul-23 23:00N 45°31' W 125°00'4 7.4
2017-Jul-23 22:30N 45°35' W 125°00'4 7.7
2017-Jul-23 22:01N 45°39' W 124°60'4 7.8
2017-Jul-23 21:31N 45°43' W 124°59'4 7.8
2017-Jul-23 21:00N 45°46' W 124°59'4 7.7
2017-Jul-23 20:31N 45°50' W 124°60'4 7.7
2017-Jul-23 20:01N 45°54' W 124°60'4 7.8
2017-Jul-23 19:31N 45°58' W 124°60'4 7.8
2017-Jul-23 19:01N 46°02' W 124°60'4 7.9
2017-Jul-23 18:31N 46°06' W 125°00'4 7.7
2017-Jul-23 18:01N 46°10' W 125°00'4 7.9
2017-Jul-23 17:30N 46°14' W 125°00'4 7.7
2017-Jul-23 17:01N 46°18' W 125°00'4 7.8
2017-Jul-23 16:31N 46°21' W 125°01'4 8.0
2017-Jul-23 16:01N 46°25' W 125°01'4 7.9
2017-Jul-23 15:31N 46°29' W 125°01'4 8.2
2017-Jul-23 15:00N 46°34' W 125°01'4 8.3
2017-Jul-23 14:30N 46°38' W 125°01'4 8.3
2017-Jul-23 14:00N 46°42' W 125°00'4 8.1
2017-Jul-23 13:30N 46°46' W 125°00'4 8.3
2017-Jul-23 13:00N 46°50' W 125°00'4 8.6
2017-Jul-23 12:30N 46°54' W 124°60'91 7.3
2017-Jul-23 00:04N 48°23' W 124°31'1 8.8
2017-Jul-23 00:01N 48°23' W 124°30'4 8.2
2017-Jul-22 23:30N 48°21' W 124°25'4 7.9
2017-Jul-22 23:00N 48°19' W 124°19'4 7.5
2017-Jul-22 22:31N 48°18' W 124°15'4 7.4
2017-Jul-22 22:00N 48°16' W 124°09'4 7.2
2017-Jul-22 21:30N 48°14' W 124°05'3 6.7
2017-Jul-22 21:00N 48°13' W 123°60'3 6.2
2017-Jul-22 20:29N 48°12' W 123°55'3 5.8
2017-Jul-22 20:01N 48°12' W 123°51'4 7.4
2017-Jul-22 19:30N 48°12' W 123°46'5 9.4
2017-Jul-22 19:00N 48°11' W 123°39'4 8.9
2017-Jul-22 18:30N 48°11' W 123°32'4 8.2
2017-Jul-22 18:00N 48°10' W 123°26'3 5.8
2017-Jul-22 17:30N 48°08' W 123°23'0 0.9
2017-Jul-22 17:00N 48°08' W 123°22'0 0.2
2017-Jul-22 16:31N 48°08' W 123°23'4 7.3
2017-Jul-22 16:00N 48°11' W 123°19'510.4
2017-Jul-22 15:30N 48°15' W 123°14'5 9.4
2017-Jul-22 15:00N 48°19' W 123°12'1010.4
2017-Jul-22 14:01N 48°29' W 123°11'611.7
2017-Jul-22 13:30N 48°35' W 123°14'510.9
2017-Jul-22 13:00N 48°40' W 123°16'5 9.4
2017-Jul-22 12:30N 48°45' W 123°19'16 7.1
2017-Jul-22 10:15N 48°56' W 123°37'1 5.9
2017-Jul-22 10:00N 48°54' W 123°38'2 4.2
2017-Jul-22 09:25N 48°55' W 123°41'0 0.0
2017-Jul-22 03:20N 48°55' W 123°41'0 0.0
2017-Jul-22 00:52N 48°55' W 123°41'0 0.0
2017-Jul-21 20:10N 48°55' W 123°41'0 0.0
2017-Jul-21 19:59N 48°55' W 123°41'0 0.0
2017-Jul-21 19:29N 48°55' W 123°41'0 0.0
2017-Jul-21 18:52N 48°55' W 123°41'0 0.0
2017-Jul-21 18:30N 48°55' W 123°41'0 0.0
2017-Jul-21 17:54N 48°55' W 123°41'0 0.0
2017-Jul-21 17:28N 48°55' W 123°41'0 0.0
2017-Jul-21 17:00N 48°55' W 123°41'0 0.0
2017-Jul-21 16:27N 48°55' W 123°41'0 0.0
2017-Jul-21 15:59N 48°55' W 123°41'0 0.0
2017-Jul-21 15:30N 48°55' W 123°41'0 0.1
2017-Jul-21 14:53N 48°55' W 123°41'0 0.0
2017-Jul-21 14:15N 48°55' W 123°41'0 0.0
2017-Jul-21 13:36N 48°55' W 123°41'0 0.0
2017-Jul-21 13:27N 48°55' W 123°41'0 0.0
2017-Jul-21 13:00N 48°55' W 123°41'0 0.0
2017-Jul-21 12:22N 48°55' W 123°41'0 0.0
2017-Jul-21 11:58N 48°55' W 123°41'0 0.0
2017-Jul-21 11:27N 48°55' W 123°41'0 0.0
2017-Jul-21 10:17N 48°55' W 123°41'0 0.0
2017-Jul-21 09:56N 48°55' W 123°41'0 0.0
2017-Jul-21 09:29N 48°55' W 123°41'0 0.1
2017-Jul-21 09:00N 48°55' W 123°41'0 0.0
2017-Jul-21 08:29N 48°55' W 123°41'0 0.0
2017-Jul-21 07:58N 48°55' W 123°41'0 0.0
2017-Jul-21 07:28N 48°55' W 123°41'0 0.0
2017-Jul-21 06:45N 48°55' W 123°41'0 0.0
2017-Jul-21 06:28N 48°55' W 123°41'0 0.0
2017-Jul-21 05:58N 48°55' W 123°41'0 0.0
2017-Jul-21 05:29N 48°55' W 123°41'0 0.0
2017-Jul-21 04:59N 48°55' W 123°41'0 0.1
2017-Jul-21 04:27N 48°55' W 123°41'0 0.0
2017-Jul-21 04:00N 48°55' W 123°41'0 0.0
2017-Jul-21 01:51N 48°55' W 123°41'0 0.0
2017-Jul-21 01:31N 48°55' W 123°41'0 0.2
2017-Jul-20 23:48N 48°55' W 123°40'15 7.8
2017-Jul-20 21:52N 48°47' W 123°20'410.4
2017-Jul-20 21:30N 48°44' W 123°17'510.9
2017-Jul-20 21:00N 48°39' W 123°14'612.2
2017-Jul-20 20:30N 48°33' W 123°12'611.7
2017-Jul-20 20:00N 48°28' W 123°09'713.9
2017-Jul-20 19:30N 48°22' W 123°14'611.7
2017-Jul-20 18:59N 48°16' W 123°18'611.1
2017-Jul-20 18:30N 48°11' W 123°21'4 8.1
2017-Jul-20 18:00N 48°08' W 123°24'1 1.3
2017-Jul-20 17:30N 48°08' W 123°24'3 6.4
2017-Jul-20 17:00N 48°10' W 123°28'5 9.8
2017-Jul-20 16:30N 48°11' W 123°35'4 8.6
2017-Jul-20 15:59N 48°12' W 123°41'4 8.4
2017-Jul-20 15:28N 48°12' W 123°48'4 7.7
2017-Jul-20 14:55N 48°12' W 123°54'8 8.9
2017-Jul-20 13:59N 48°15' W 124°06'4 8.2
2017-Jul-20 13:28N 48°17' W 124°11'4 7.6
2017-Jul-20 13:00N 48°19' W 124°16'4 7.0
2017-Jul-20 12:30N 48°20' W 124°21'4 7.1
2017-Jul-20 12:00N 48°22' W 124°26'4 7.4
2017-Jul-20 11:30N 48°23' W 124°31'4 7.5
2017-Jul-20 10:59N 48°25' W 124°36'3 7.2
2017-Jul-20 10:30N 48°26' W 124°41'4 8.0
2017-Jul-20 10:00N 48°26' W 124°47'5 9.5
2017-Jul-20 09:30N 48°22' W 124°51'52 9.6
2017-Jul-20 04:07N 47°30' W 124°53'110.0
2017-Jul-20 04:00N 47°29' W 124°53'5 9.8
2017-Jul-20 03:29N 47°24' W 124°53'5 9.7
2017-Jul-20 02:59N 47°19' W 124°53'5 9.8
2017-Jul-20 02:30N 47°15' W 124°53'5 9.6
2017-Jul-20 02:00N 47°10' W 124°53'5 9.8
2017-Jul-20 01:30N 47°05' W 124°52'5 9.8
2017-Jul-20 01:00N 47°00' W 124°52'5 9.5
2017-Jul-20 00:30N 46°55' W 124°52'5 9.2
2017-Jul-20 00:00N 46°51' W 124°52'5 9.4
2017-Jul-19 23:30N 46°46' W 124°52'5 9.5
2017-Jul-19 23:00N 46°41' W 124°52'5 9.5
2017-Jul-19 22:31N 46°36' W 124°53'5 9.6
2017-Jul-19 22:01N 46°32' W 124°53'5 9.7
2017-Jul-19 21:31N 46°27' W 124°53'5 9.6
2017-Jul-19 21:01N 46°22' W 124°54'5 9.6
2017-Jul-19 20:30N 46°17' W 124°54'5 9.6
2017-Jul-19 20:00N 46°13' W 124°55'5 9.9
2017-Jul-19 19:30N 46°08' W 124°57'5 9.8
2017-Jul-19 19:01N 46°03' W 124°59'5 9.7
2017-Jul-19 18:30N 45°58' W 125°00'5 9.9
2017-Jul-19 18:00N 45°53' W 125°01'5 9.9
2017-Jul-19 17:30N 45°48' W 125°01'5 9.9
2017-Jul-19 17:01N 45°43' W 125°00'5 9.8
2017-Jul-19 16:30N 45°39' W 124°60'5 9.6
2017-Jul-19 16:00N 45°34' W 124°59'5 9.7
2017-Jul-19 15:30N 45°29' W 124°59'9 9.1
2017-Jul-19 14:30N 45°20' W 125°01'5 8.8
2017-Jul-19 13:54N 45°15' W 125°01'8 9.1
2017-Jul-19 13:00N 45°06' W 125°00'5 9.5
2017-Jul-19 12:26N 45°01' W 124°58'4 9.9
2017-Jul-19 12:00N 44°57' W 124°57'5 9.7
2017-Jul-19 11:29N 44°52' W 124°55'7 9.8
2017-Jul-19 10:47N 44°46' W 124°52'3 9.7
2017-Jul-19 10:30N 44°43' W 124°51'10 9.6
2017-Jul-19 09:30N 44°34' W 124°47'5 9.9
2017-Jul-19 08:57N 44°29' W 124°45'4 9.6
2017-Jul-19 08:30N 44°24' W 124°43'5 9.6
2017-Jul-19 08:00N 44°20' W 124°42'5 9.5
2017-Jul-19 07:29N 44°15' W 124°42'5 9.5
2017-Jul-19 06:59N 44°10' W 124°42'5 9.6
2017-Jul-19 06:29N 44°05' W 124°42'6 9.2
2017-Jul-19 05:49N 43°59' W 124°42'14 9.4
2017-Jul-19 04:20N 43°46' W 124°38'4 9.4
2017-Jul-19 03:55N 43°42' W 124°36'4 9.4
2017-Jul-19 03:30N 43°38' W 124°34'5 9.3
2017-Jul-19 03:00N 43°34' W 124°32'15 8.6
2017-Jul-19 01:15N 43°22' W 124°19'0 0.1
2017-Jul-19 00:51N 43°22' W 124°19'2 6.7
2017-Jul-19 00:30N 43°24' W 124°17'1 1.5
2017-Jul-19 00:00N 43°25' W 124°17'71 1.7
2017-Jul-17 06:22N 44°35' W 124°16'2 5.8
2017-Jul-17 06:00N 44°37' W 124°16'3 6.0
2017-Jul-17 05:30N 44°40' W 124°15'25 6.6
2017-Jul-17 01:45N 45°04' W 124°06'5 6.5
2017-Jul-17 00:58N 45°09' W 124°06'11 9.2
2017-Jul-16 23:45N 45°21' W 124°05'3 9.2
2017-Jul-16 23:28N 45°23' W 124°05'4 9.1
2017-Jul-16 23:00N 45°27' W 124°04'5 9.0
2017-Jul-16 22:30N 45°32' W 124°04'5 9.1
2017-Jul-16 22:00N 45°36' W 124°04'5 9.1
2017-Jul-16 21:31N 45°41' W 124°05'5 9.1
2017-Jul-16 21:01N 45°45' W 124°06'6 9.1
2017-Jul-16 20:19N 45°52' W 124°07'3 8.9
2017-Jul-16 20:01N 45°54' W 124°07'4 8.8
2017-Jul-16 19:31N 45°59' W 124°08'4 8.7
2017-Jul-16 19:01N 46°03' W 124°09'4 8.9
2017-Jul-16 18:31N 46°07' W 124°10'4 8.7
2017-Jul-16 18:01N 46°12' W 124°11'4 7.7
2017-Jul-16 17:30N 46°15' W 124°13'4 8.3
2017-Jul-16 17:01N 46°19' W 124°13'4 8.6
2017-Jul-16 16:30N 46°24' W 124°14'4 8.2
2017-Jul-16 16:01N 46°28' W 124°15'4 8.2
2017-Jul-16 15:31N 46°32' W 124°16'4 8.3
2017-Jul-16 15:00N 46°36' W 124°17'4 8.2
2017-Jul-16 14:30N 46°40' W 124°18'4 8.3
2017-Jul-16 14:01N 46°44' W 124°19'4 8.2
2017-Jul-16 13:31N 46°48' W 124°19'4 7.9
2017-Jul-16 13:00N 46°51' W 124°23'4 8.1
2017-Jul-16 12:31N 46°54' W 124°27'4 8.2
2017-Jul-16 12:00N 46°57' W 124°31'4 8.5
2017-Jul-16 11:31N 47°01' W 124°32'4 8.5
2017-Jul-16 11:00N 47°05' W 124°34'4 8.2
2017-Jul-16 10:30N 47°09' W 124°35'65 8.7
2017-Jul-16 02:58N 48°13' W 124°58'3 7.2
2017-Jul-16 02:30N 48°16' W 124°57'4 7.2
2017-Jul-16 02:00N 48°19' W 124°54'3 6.9
2017-Jul-16 01:31N 48°22' W 124°51'3 6.9
2017-Jul-16 01:00N 48°25' W 124°48'3 6.9
2017-Jul-16 00:31N 48°26' W 124°43'4 7.9
2017-Jul-16 00:00N 48°25' W 124°37'4 8.4
2017-Jul-15 23:30N 48°23' W 124°32'4 8.4
2017-Jul-15 23:00N 48°21' W 124°26'4 8.6
2017-Jul-15 22:30N 48°19' W 124°20'5 9.2
2017-Jul-15 21:59N 48°17' W 124°14'4 9.0
2017-Jul-15 21:30N 48°15' W 124°08'4 8.8
2017-Jul-15 21:00N 48°13' W 124°02'4 8.4
2017-Jul-15 20:30N 48°12' W 123°56'4 8.3
2017-Jul-15 20:00N 48°12' W 123°50'5 9.6
2017-Jul-15 19:30N 48°12' W 123°43'510.0
2017-Jul-15 19:00N 48°12' W 123°35'5 9.6
2017-Jul-15 18:30N 48°10' W 123°28'4 7.8
2017-Jul-15 18:00N 48°08' W 123°23'1 1.2
2017-Jul-15 17:30N 48°07' W 123°24'0 0.1
2017-Jul-15 17:00N 48°07' W 123°24'0 0.0
2017-Jul-15 16:30N 48°07' W 123°24'0 0.2
2017-Jul-15 16:00N 48°08' W 123°24'2 3.7
2017-Jul-15 15:31N 48°08' W 123°21'2 3.7
2017-Jul-15 15:01N 48°08' W 123°18'4 3.6
2017-Jul-15 13:59N 48°11' W 123°14'2 4.5
2017-Jul-15 13:30N 48°13' W 123°13'2 4.5
2017-Jul-15 13:01N 48°15' W 123°13'3 5.3
2017-Jul-15 12:30N 48°18' W 123°13'3 5.9
2017-Jul-15 12:01N 48°21' W 123°13'3 6.9
2017-Jul-15 11:30N 48°24' W 123°12'4 8.0
2017-Jul-15 11:01N 48°28' W 123°13'5 9.1
2017-Jul-15 10:31N 48°33' W 123°14'5 9.5
2017-Jul-15 10:01N 48°37' W 123°15'4 9.0
2017-Jul-15 09:31N 48°42' W 123°16'4 8.5
2017-Jul-15 09:01N 48°46' W 123°19'5 8.9
2017-Jul-15 08:28N 48°50' W 123°21'4 8.5
2017-Jul-15 07:57N 48°53' W 123°27'7 8.3
2017-Jul-15 07:09N 48°57' W 123°35'1 6.8
2017-Jul-15 07:00N 48°57' W 123°36'3 6.3
2017-Jul-15 06:31N 48°54' W 123°38'2 3.7
2017-Jul-15 06:00N 48°55' W 123°41'0 0.1
2017-Jul-15 05:31N 48°55' W 123°41'0 0.0
2017-Jul-15 05:00N 48°55' W 123°41'0 0.0
2017-Jul-15 04:30N 48°55' W 123°41'0 0.0
2017-Jul-15 04:00N 48°55' W 123°41'0 0.0
2017-Jul-15 03:30N 48°55' W 123°41'0 0.0
2017-Jul-15 02:58N 48°55' W 123°41'0 0.0
2017-Jul-15 02:30N 48°55' W 123°41'0 0.0
2017-Jul-15 02:00N 48°55' W 123°41'0 0.0
2017-Jul-15 01:30N 48°55' W 123°41'0 0.0
2017-Jul-15 01:00N 48°55' W 123°41'0 0.0
2017-Jul-15 00:30N 48°55' W 123°41'0 0.0
2017-Jul-15 00:00N 48°55' W 123°41'0 0.0
2017-Jul-14 23:31N 48°55' W 123°41'0 0.0
2017-Jul-14 23:00N 48°55' W 123°41'0 0.0
2017-Jul-14 22:30N 48°55' W 123°41'0 0.0
2017-Jul-14 22:01N 48°55' W 123°41'0 0.0
2017-Jul-14 21:30N 48°55' W 123°41'0 0.0
2017-Jul-14 20:59N 48°55' W 123°41'0 0.0
2017-Jul-14 15:40N 48°55' W 123°41'0 0.0
2017-Jul-14 14:34N 48°55' W 123°41'0 0.1
2017-Jul-14 14:27N 48°55' W 123°41'0 0.0
2017-Jul-14 13:59N 48°55' W 123°41'  
Track history (hours):
 
Tides and Currents Weather Stations Pressure Air Temp Water Temp Dewpoint Dewpoint Depression Visibility Wind Speed Wind Dir Waves Ship Positions

Jack Brusco

Owner: Brusco Tug & Barge, Inc., Longview, WA. More information available from US FCC via Universal Licensing System and Coast Guard Vessel Documentation Center.

Last reported at 2017-Jul-24 13:00 UTC. Time now 2017-Jul-24 14:35 UTC.
Position N 43°56' W 124°42'.

Length 36 m; draft 5.2 m.

Type: Tug. MMSI: 3699086.

Date/timePositionNaut miles runAvg speedWind from/ knotsBaromVisibWave heightAir tempDewpointWater temp
2017-Jul-24 13:00N 43°56' W 124°42'3 6.5
2017-Jul-24 12:30N 43°60' W 124°42'3 6.6
2017-Jul-24 12:00N 44°03' W 124°42'4 6.4
2017-Jul-24 11:26N 44°07' W 124°42'3 6.4
2017-Jul-24 10:59N 44°09' W 124°42'3 6.8
2017-Jul-24 10:30N 44°13' W 124°42'3 6.7
2017-Jul-24 10:00N 44°16' W 124°42'3 6.6
2017-Jul-24 09:31N 44°19' W 124°42'3 6.8
2017-Jul-24 09:00N 44°23' W 124°42'3 6.7
2017-Jul-24 08:30N 44°26' W 124°42'3 6.6
2017-Jul-24 07:59N 44°30' W 124°42'3 6.6
2017-Jul-24 07:29N 44°33' W 124°42'3 6.6
2017-Jul-24 06:58N 44°36' W 124°42'3 6.7
2017-Jul-24 06:30N 44°39' W 124°43'4 7.2
2017-Jul-24 06:01N 44°43' W 124°43'4 7.5
2017-Jul-24 05:28N 44°47' W 124°43'6 7.7
2017-Jul-24 04:39N 44°53' W 124°44'1 7.0
2017-Jul-24 04:30N 44°54' W 124°44'3 6.9
2017-Jul-24 04:00N 44°57' W 124°47'3 7.0
2017-Jul-24 03:31N 44°60' W 124°51'4 7.0
2017-Jul-24 03:00N 45°02' W 124°54'3 6.9
2017-Jul-24 02:30N 45°05' W 124°57'3 6.7
2017-Jul-24 02:00N 45°08' W 124°59'4 7.3
2017-Jul-24 01:24N 45°12' W 125°01'3 7.6
2017-Jul-24 00:59N 45°15' W 125°01'4 7.7
2017-Jul-24 00:30N 45°19' W 125°01'4 8.2
2017-Jul-24 00:00N 45°23' W 125°00'4 8.4
2017-Jul-23 23:31N 45°27' W 125°00'4 7.7
2017-Jul-23 23:00N 45°31' W 125°00'4 7.4
2017-Jul-23 22:30N 45°35' W 125°00'4 7.7
2017-Jul-23 22:01N 45°39' W 124°60'4 7.8
2017-Jul-23 21:31N 45°43' W 124°59'4 7.8
2017-Jul-23 21:00N 45°46' W 124°59'4 7.7
2017-Jul-23 20:31N 45°50' W 124°60'4 7.7
2017-Jul-23 20:01N 45°54' W 124°60'4 7.8
2017-Jul-23 19:31N 45°58' W 124°60'4 7.8
2017-Jul-23 19:01N 46°02' W 124°60'4 7.9
2017-Jul-23 18:31N 46°06' W 125°00'4 7.7
2017-Jul-23 18:01N 46°10' W 125°00'4 7.9
2017-Jul-23 17:30N 46°14' W 125°00'4 7.7
2017-Jul-23 17:01N 46°18' W 125°00'4 7.8
2017-Jul-23 16:31N 46°21' W 125°01'4 8.0
2017-Jul-23 16:01N 46°25' W 125°01'4 7.9
2017-Jul-23 15:31N 46°29' W 125°01'4 8.2
2017-Jul-23 15:00N 46°34' W 125°01'4 8.3
2017-Jul-23 14:30N 46°38' W 125°01'4 8.3
2017-Jul-23 14:00N 46°42' W 125°00'4 8.1
2017-Jul-23 13:30N 46°46' W 125°00'4 8.3
2017-Jul-23 13:00N 46°50' W 125°00'4 8.6
2017-Jul-23 12:30N 46°54' W 124°60'91 7.3
2017-Jul-23 00:04N 48°23' W 124°31'1 8.8
2017-Jul-23 00:01N 48°23' W 124°30'4 8.2
2017-Jul-22 23:30N 48°21' W 124°25'4 7.9
2017-Jul-22 23:00N 48°19' W 124°19'4 7.5
2017-Jul-22 22:31N 48°18' W 124°15'4 7.4
2017-Jul-22 22:00N 48°16' W 124°09'4 7.2
2017-Jul-22 21:30N 48°14' W 124°05'3 6.7
2017-Jul-22 21:00N 48°13' W 123°60'3 6.2
2017-Jul-22 20:29N 48°12' W 123°55'3 5.8
2017-Jul-22 20:01N 48°12' W 123°51'4 7.4
2017-Jul-22 19:30N 48°12' W 123°46'5 9.4
2017-Jul-22 19:00N 48°11' W 123°39'4 8.9
2017-Jul-22 18:30N 48°11' W 123°32'4 8.2
2017-Jul-22 18:00N 48°10' W 123°26'3 5.8
2017-Jul-22 17:30N 48°08' W 123°23'0 0.9
2017-Jul-22 17:00N 48°08' W 123°22'0 0.2
2017-Jul-22 16:31N 48°08' W 123°23'4 7.3
2017-Jul-22 16:00N 48°11' W 123°19'510.4
2017-Jul-22 15:30N 48°15' W 123°14'5 9.4
2017-Jul-22 15:00N 48°19' W 123°12'1010.4
2017-Jul-22 14:01N 48°29' W 123°11'611.7
2017-Jul-22 13:30N 48°35' W 123°14'510.9
2017-Jul-22 13:00N 48°40' W 123°16'5 9.4
2017-Jul-22 12:30N 48°45' W 123°19'16 7.1
2017-Jul-22 10:15N 48°56' W 123°37'1 5.9
2017-Jul-22 10:00N 48°54' W 123°38'2 4.2
2017-Jul-22 09:25N 48°55' W 123°41'0 0.0
2017-Jul-22 03:20N 48°55' W 123°41'0 0.0
2017-Jul-22 00:52N 48°55' W 123°41'0 0.0
2017-Jul-21 20:10N 48°55' W 123°41'0 0.0
2017-Jul-21 19:59N 48°55' W 123°41'0 0.0
2017-Jul-21 19:29N 48°55' W 123°41'0 0.0
2017-Jul-21 18:52N 48°55' W 123°41'0 0.0
2017-Jul-21 18:30N 48°55' W 123°41'0 0.0
2017-Jul-21 17:54N 48°55' W 123°41'0 0.0
2017-Jul-21 17:28N 48°55' W 123°41'0 0.0
2017-Jul-21 17:00N 48°55' W 123°41'0 0.0
2017-Jul-21 16:27N 48°55' W 123°41'0 0.0
2017-Jul-21 15:59N 48°55' W 123°41'0 0.0
2017-Jul-21 15:30N 48°55' W 123°41'0 0.1
2017-Jul-21 14:53N 48°55' W 123°41'0 0.0
2017-Jul-21 14:15N 48°55' W 123°41'0 0.0
2017-Jul-21 13:36N 48°55' W 123°41'0 0.0
2017-Jul-21 13:27N 48°55' W 123°41'0 0.0
2017-Jul-21 13:00N 48°55' W 123°41'0 0.0
2017-Jul-21 12:22N 48°55' W 123°41'0 0.0
2017-Jul-21 11:58N 48°55' W 123°41'0 0.0
2017-Jul-21 11:27N 48°55' W 123°41'0 0.0
2017-Jul-21 10:17N 48°55' W 123°41'0 0.0
2017-Jul-21 09:56N 48°55' W 123°41'0 0.0
2017-Jul-21 09:29N 48°55' W 123°41'0 0.1
2017-Jul-21 09:00N 48°55' W 123°41'0 0.0
2017-Jul-21 08:29N 48°55' W 123°41'0 0.0
2017-Jul-21 07:58N 48°55' W 123°41'0 0.0
2017-Jul-21 07:28N 48°55' W 123°41'0 0.0
2017-Jul-21 06:45N 48°55' W 123°41'0 0.0
2017-Jul-21 06:28N 48°55' W 123°41'0 0.0
2017-Jul-21 05:58N 48°55' W 123°41'0 0.0
2017-Jul-21 05:29N 48°55' W 123°41'0 0.0
2017-Jul-21 04:59N 48°55' W 123°41'0 0.1
2017-Jul-21 04:27N 48°55' W 123°41'0 0.0
2017-Jul-21 04:00N 48°55' W 123°41'0 0.0
2017-Jul-21 01:51N 48°55' W 123°41'0 0.0
2017-Jul-21 01:31N 48°55' W 123°41'0 0.2
2017-Jul-20 23:48N 48°55' W 123°40'15 7.8
2017-Jul-20 21:52N 48°47' W 123°20'410.4
2017-Jul-20 21:30N 48°44' W 123°17'510.9
2017-Jul-20 21:00N 48°39' W 123°14'612.2
2017-Jul-20 20:30N 48°33' W 123°12'611.7
2017-Jul-20 20:00N 48°28' W 123°09'713.9
2017-Jul-20 19:30N 48°22' W 123°14'611.7
2017-Jul-20 18:59N 48°16' W 123°18'611.1
2017-Jul-20 18:30N 48°11' W 123°21'4 8.1
2017-Jul-20 18:00N 48°08' W 123°24'1 1.3
2017-Jul-20 17:30N 48°08' W 123°24'3 6.4
2017-Jul-20 17:00N 48°10' W 123°28'5 9.8
2017-Jul-20 16:30N 48°11' W 123°35'4 8.6
2017-Jul-20 15:59N 48°12' W 123°41'4 8.4
2017-Jul-20 15:28N 48°12' W 123°48'4 7.7
2017-Jul-20 14:55N 48°12' W 123°54'8 8.9
2017-Jul-20 13:59N 48°15' W 124°06'4 8.2
2017-Jul-20 13:28N 48°17' W 124°11'4 7.6
2017-Jul-20 13:00N 48°19' W 124°16'4 7.0
2017-Jul-20 12:30N 48°20' W 124°21'4 7.1
2017-Jul-20 12:00N 48°22' W 124°26'4 7.4
2017-Jul-20 11:30N 48°23' W 124°31'4 7.5
2017-Jul-20 10:59N 48°25' W 124°36'3 7.2
2017-Jul-20 10:30N 48°26' W 124°41'4 8.0
2017-Jul-20 10:00N 48°26' W 124°47'5 9.5
2017-Jul-20 09:30N 48°22' W 124°51'52 9.6
2017-Jul-20 04:07N 47°30' W 124°53'110.0
2017-Jul-20 04:00N 47°29' W 124°53'5 9.8
2017-Jul-20 03:29N 47°24' W 124°53'5 9.7
2017-Jul-20 02:59N 47°19' W 124°53'5 9.8
2017-Jul-20 02:30N 47°15' W 124°53'5 9.6
2017-Jul-20 02:00N 47°10' W 124°53'5 9.8
2017-Jul-20 01:30N 47°05' W 124°52'5 9.8
2017-Jul-20 01:00N 47°00' W 124°52'5 9.5
2017-Jul-20 00:30N 46°55' W 124°52'5 9.2
2017-Jul-20 00:00N 46°51' W 124°52'5 9.4
2017-Jul-19 23:30N 46°46' W 124°52'5 9.5
2017-Jul-19 23:00N 46°41' W 124°52'5 9.5
2017-Jul-19 22:31N 46°36' W 124°53'5 9.6
2017-Jul-19 22:01N 46°32' W 124°53'5 9.7
2017-Jul-19 21:31N 46°27' W 124°53'5 9.6
2017-Jul-19 21:01N 46°22' W 124°54'5 9.6
2017-Jul-19 20:30N 46°17' W 124°54'5 9.6
2017-Jul-19 20:00N 46°13' W 124°55'5 9.9
2017-Jul-19 19:30N 46°08' W 124°57'5 9.8
2017-Jul-19 19:01N 46°03' W 124°59'5 9.7
2017-Jul-19 18:30N 45°58' W 125°00'5 9.9
2017-Jul-19 18:00N 45°53' W 125°01'5 9.9
2017-Jul-19 17:30N 45°48' W 125°01'5 9.9
2017-Jul-19 17:01N 45°43' W 125°00'5 9.8
2017-Jul-19 16:30N 45°39' W 124°60'5 9.6
2017-Jul-19 16:00N 45°34' W 124°59'5 9.7
2017-Jul-19 15:30N 45°29' W 124°59'9 9.1
2017-Jul-19 14:30N 45°20' W 125°01'5 8.8
2017-Jul-19 13:54N 45°15' W 125°01'8 9.1
2017-Jul-19 13:00N 45°06' W 125°00'5 9.5
2017-Jul-19 12:26N 45°01' W 124°58'4 9.9
2017-Jul-19 12:00N 44°57' W 124°57'5 9.7
2017-Jul-19 11:29N 44°52' W 124°55'7 9.8
2017-Jul-19 10:47N 44°46' W 124°52'3 9.7
2017-Jul-19 10:30N 44°43' W 124°51'10 9.6
2017-Jul-19 09:30N 44°34' W 124°47'5 9.9
2017-Jul-19 08:57N 44°29' W 124°45'4 9.6
2017-Jul-19 08:30N 44°24' W 124°43'5 9.6
2017-Jul-19 08:00N 44°20' W 124°42'5 9.5
2017-Jul-19 07:29N 44°15' W 124°42'5 9.5
2017-Jul-19 06:59N 44°10' W 124°42'5 9.6
2017-Jul-19 06:29N 44°05' W 124°42'6 9.2
2017-Jul-19 05:49N 43°59' W 124°42'14 9.4
2017-Jul-19 04:20N 43°46' W 124°38'4 9.4
2017-Jul-19 03:55N 43°42' W 124°36'4 9.4
2017-Jul-19 03:30N 43°38' W 124°34'5 9.3
2017-Jul-19 03:00N 43°34' W 124°32'15 8.6
2017-Jul-19 01:15N 43°22' W 124°19'0 0.1
2017-Jul-19 00:51N 43°22' W 124°19'2 6.7
2017-Jul-19 00:30N 43°24' W 124°17'1 1.5
2017-Jul-19 00:00N 43°25' W 124°17'71 1.7
2017-Jul-17 06:22N 44°35' W 124°16'2 5.8
2017-Jul-17 06:00N 44°37' W 124°16'3 6.0
2017-Jul-17 05:30N 44°40' W 124°15'25 6.6
2017-Jul-17 01:45N 45°04' W 124°06'5 6.5
2017-Jul-17 00:58N 45°09' W 124°06'11 9.2
2017-Jul-16 23:45N 45°21' W 124°05'3 9.2
2017-Jul-16 23:28N 45°23' W 124°05'4 9.1
2017-Jul-16 23:00N 45°27' W 124°04'5 9.0
2017-Jul-16 22:30N 45°32' W 124°04'5 9.1
2017-Jul-16 22:00N 45°36' W 124°04'5 9.1
2017-Jul-16 21:31N 45°41' W 124°05'5 9.1
2017-Jul-16 21:01N 45°45' W 124°06'6 9.1
2017-Jul-16 20:19N 45°52' W 124°07'3 8.9
2017-Jul-16 20:01N 45°54' W 124°07'4 8.8
2017-Jul-16 19:31N 45°59' W 124°08'4 8.7
2017-Jul-16 19:01N 46°03' W 124°09'4 8.9
2017-Jul-16 18:31N 46°07' W 124°10'4 8.7
2017-Jul-16 18:01N 46°12' W 124°11'4 7.7
2017-Jul-16 17:30N 46°15' W 124°13'4 8.3
2017-Jul-16 17:01N 46°19' W 124°13'4 8.6
2017-Jul-16 16:30N 46°24' W 124°14'4 8.2
2017-Jul-16 16:01N 46°28' W 124°15'4 8.2
2017-Jul-16 15:31N 46°32' W 124°16'4 8.3
2017-Jul-16 15:00N 46°36' W 124°17'4 8.2
2017-Jul-16 14:30N 46°40' W 124°18'4 8.3
2017-Jul-16 14:01N 46°44' W 124°19'4 8.2
2017-Jul-16 13:31N 46°48' W 124°19'4 7.9
2017-Jul-16 13:00N 46°51' W 124°23'4 8.1
2017-Jul-16 12:31N 46°54' W 124°27'4 8.2
2017-Jul-16 12:00N 46°57' W 124°31'4 8.5
2017-Jul-16 11:31N 47°01' W 124°32'4 8.5
2017-Jul-16 11:00N 47°05' W 124°34'4 8.2
2017-Jul-16 10:30N 47°09' W 124°35'65 8.7
2017-Jul-16 02:58N 48°13' W 124°58'3 7.2
2017-Jul-16 02:30N 48°16' W 124°57'4 7.2
2017-Jul-16 02:00N 48°19' W 124°54'3 6.9
2017-Jul-16 01:31N 48°22' W 124°51'3 6.9
2017-Jul-16 01:00N 48°25' W 124°48'3 6.9
2017-Jul-16 00:31N 48°26' W 124°43'4 7.9
2017-Jul-16 00:00N 48°25' W 124°37'4 8.4
2017-Jul-15 23:30N 48°23' W 124°32'4 8.4
2017-Jul-15 23:00N 48°21' W 124°26'4 8.6
2017-Jul-15 22:30N 48°19' W 124°20'5 9.2
2017-Jul-15 21:59N 48°17' W 124°14'4 9.0
2017-Jul-15 21:30N 48°15' W 124°08'4 8.8
2017-Jul-15 21:00N 48°13' W 124°02'4 8.4
2017-Jul-15 20:30N 48°12' W 123°56'4 8.3
2017-Jul-15 20:00N 48°12' W 123°50'5 9.6
2017-Jul-15 19:30N 48°12' W 123°43'510.0
2017-Jul-15 19:00N 48°12' W 123°35'5 9.6
2017-Jul-15 18:30N 48°10' W 123°28'4 7.8
2017-Jul-15 18:00N 48°08' W 123°23'1 1.2
2017-Jul-15 17:30N 48°07' W 123°24'0 0.1
2017-Jul-15 17:00N 48°07' W 123°24'0 0.0
2017-Jul-15 16:30N 48°07' W 123°24'0 0.2
2017-Jul-15 16:00N 48°08' W 123°24'2 3.7
2017-Jul-15 15:31N 48°08' W 123°21'2 3.7
2017-Jul-15 15:01N 48°08' W 123°18'4 3.6
2017-Jul-15 13:59N 48°11' W 123°14'2 4.5
2017-Jul-15 13:30N 48°13' W 123°13'2 4.5
2017-Jul-15 13:01N 48°15' W 123°13'3 5.3
2017-Jul-15 12:30N 48°18' W 123°13'3 5.9
2017-Jul-15 12:01N 48°21' W 123°13'3 6.9
2017-Jul-15 11:30N 48°24' W 123°12'4 8.0
2017-Jul-15 11:01N 48°28' W 123°13'5 9.1
2017-Jul-15 10:31N 48°33' W 123°14'5 9.5
2017-Jul-15 10:01N 48°37' W 123°15'4 9.0
2017-Jul-15 09:31N 48°42' W 123°16'4 8.5
2017-Jul-15 09:01N 48°46' W 123°19'5 8.9
2017-Jul-15 08:28N 48°50' W 123°21'4 8.5
2017-Jul-15 07:57N 48°53' W 123°27'7 8.3
2017-Jul-15 07:09N 48°57' W 123°35'1 6.8
2017-Jul-15 07:00N 48°57' W 123°36'3 6.3
2017-Jul-15 06:31N 48°54' W 123°38'2 3.7
2017-Jul-15 06:00N 48°55' W 123°41'0 0.1
2017-Jul-15 05:31N 48°55' W 123°41'0 0.0
2017-Jul-15 05:00N 48°55' W 123°41'0 0.0
2017-Jul-15 04:30N 48°55' W 123°41'0 0.0
2017-Jul-15 04:00N 48°55' W 123°41'0 0.0
2017-Jul-15 03:30N 48°55' W 123°41'0 0.0
2017-Jul-15 02:58N 48°55' W 123°41'0 0.0
2017-Jul-15 02:30N 48°55' W 123°41'0 0.0
2017-Jul-15 02:00N 48°55' W 123°41'0 0.0
2017-Jul-15 01:30N 48°55' W 123°41'0 0.0
2017-Jul-15 01:00N 48°55' W 123°41'0 0.0
2017-Jul-15 00:30N 48°55' W 123°41'0 0.0
2017-Jul-15 00:00N 48°55' W 123°41'0 0.0
2017-Jul-14 23:31N 48°55' W 123°41'0 0.0
2017-Jul-14 23:00N 48°55' W 123°41'0 0.0
2017-Jul-14 22:30N 48°55' W 123°41'0 0.0
2017-Jul-14 22:01N 48°55' W 123°41'0 0.0
2017-Jul-14 21:30N 48°55' W 123°41'0 0.0
2017-Jul-14 20:59N 48°55' W 123°41'0 0.0
2017-Jul-14 15:40N 48°55' W 123°41'0 0.0
2017-Jul-14 14:34N 48°55' W 123°41'0 0.1
2017-Jul-14 14:27N 48°55' W 123°41'0 0.0
2017-Jul-14 13:59N 48°55' W 123°41'  

Dump ship's entire track history